sensor_id;sensor_type;location;lat;lon;timestamp;pressure;altitude;pressure_sealevel;temperature;humidity
33859;BME280;20156;47.486;12.074;2023-07-22T00:00:09;92906.97;;;16.69;100.00
33859;BME280;20156;47.486;12.074;2023-07-22T00:02:39;92895.09;;;16.72;100.00
33859;BME280;20156;47.486;12.074;2023-07-22T00:05:05;92897.72;;;16.58;100.00
33859;BME280;20156;47.486;12.074;2023-07-22T00:07:30;92903.56;;;16.33;100.00
33859;BME280;20156;47.486;12.074;2023-07-22T00:09:55;92888.78;;;16.37;100.00
33859;BME280;20156;47.486;12.074;2023-07-22T00:12:21;92900.06;;;16.23;100.00
33859;BME280;20156;47.486;12.074;2023-07-22T00:14:51;92896.38;;;16.24;100.00
33859;BME280;20156;47.486;12.074;2023-07-22T00:17:17;92898.41;;;16.28;100.00
33859;BME280;20156;47.486;12.074;2023-07-22T00:19:42;92913.44;;;16.13;100.00
33859;BME280;20156;47.486;12.074;2023-07-22T00:22:07;92922.28;;;16.04;100.00
33859;BME280;20156;47.486;12.074;2023-07-22T00:24:33;92902.03;;;16.18;100.00
33859;BME280;20156;47.486;12.074;2023-07-22T00:26:58;92928.78;;;16.06;100.00
33859;BME280;20156;47.486;12.074;2023-07-22T00:29:24;92953.44;;;15.91;100.00
33859;BME280;20156;47.486;12.074;2023-07-22T00:31:49;92960.16;;;15.84;100.00
33859;BME280;20156;47.486;12.074;2023-07-22T00:34:15;92957.53;;;15.84;100.00
33859;BME280;20156;47.486;12.074;2023-07-22T00:36:40;92961.25;;;15.83;100.00
33859;BME280;20156;47.486;12.074;2023-07-22T00:39:06;92962.69;;;15.89;100.00
33859;BME280;20156;47.486;12.074;2023-07-22T00:41:31;92953.16;;;16.07;100.00
33859;BME280;20156;47.486;12.074;2023-07-22T00:43:57;92974.63;;;16.09;100.00
33859;BME280;20156;47.486;12.074;2023-07-22T00:46:22;92969.28;;;16.14;100.00
33859;BME280;20156;47.486;12.074;2023-07-22T00:48:48;92987.06;;;16.17;100.00
33859;BME280;20156;47.486;12.074;2023-07-22T00:51:15;92978.13;;;16.18;100.00
33859;BME280;20156;47.486;12.074;2023-07-22T00:53:40;92975.09;;;16.11;100.00
33859;BME280;20156;47.486;12.074;2023-07-22T00:56:06;92975.22;;;16.06;100.00
33859;BME280;20156;47.486;12.074;2023-07-22T00:58:32;92979.59;;;15.97;100.00
33859;BME280;20156;47.486;12.074;2023-07-22T01:00:58;92968.13;;;16.06;100.00
33859;BME280;20156;47.486;12.074;2023-07-22T01:03:24;92985.69;;;15.92;100.00
33859;BME280;20156;47.486;12.074;2023-07-22T01:05:51;92984.06;;;15.96;100.00
33859;BME280;20156;47.486;12.074;2023-07-22T01:08:18;92996.19;;;15.92;100.00
33859;BME280;20156;47.486;12.074;2023-07-22T01:10:44;92996.66;;;15.94;100.00
33859;BME280;20156;47.486;12.074;2023-07-22T01:13:09;93004.06;;;15.92;100.00
33859;BME280;20156;47.486;12.074;2023-07-22T01:15:35;92989.50;;;16.13;100.00
33859;BME280;20156;47.486;12.074;2023-07-22T01:18:03;92988.91;;;16.30;100.00
33859;BME280;20156;47.486;12.074;2023-07-22T01:20:29;93037.38;;;16.05;100.00
33859;BME280;20156;47.486;12.074;2023-07-22T01:22:55;93030.09;;;16.02;100.00
33859;BME280;20156;47.486;12.074;2023-07-22T01:25:21;93023.91;;;15.98;100.00
33859;BME280;20156;47.486;12.074;2023-07-22T01:27:50;93016.50;;;16.00;100.00
33859;BME280;20156;47.486;12.074;2023-07-22T01:30:16;93019.91;;;16.01;100.00
33859;BME280;20156;47.486;12.074;2023-07-22T01:32:41;93032.34;;;16.09;100.00
33859;BME280;20156;47.486;12.074;2023-07-22T01:35:08;93065.56;;;16.00;100.00
33859;BME280;20156;47.486;12.074;2023-07-22T01:37:34;93071.59;;;16.00;100.00
33859;BME280;20156;47.486;12.074;2023-07-22T01:39:59;93088.94;;;15.82;100.00
33859;BME280;20156;47.486;12.074;2023-07-22T01:42:25;93070.50;;;15.87;100.00
33859;BME280;20156;47.486;12.074;2023-07-22T01:44:50;93072.38;;;16.01;100.00
33859;BME280;20156;47.486;12.074;2023-07-22T01:47:16;93081.09;;;16.10;100.00
33859;BME280;20156;47.486;12.074;2023-07-22T01:49:41;93117.41;;;15.89;100.00
33859;BME280;20156;47.486;12.074;2023-07-22T01:52:07;93120.81;;;15.89;100.00
33859;BME280;20156;47.486;12.074;2023-07-22T01:54:32;93119.34;;;15.83;100.00
33859;BME280;20156;47.486;12.074;2023-07-22T01:56:58;93121.06;;;15.74;100.00
33859;BME280;20156;47.486;12.074;2023-07-22T01:59:23;93129.91;;;15.78;100.00
33859;BME280;20156;47.486;12.074;2023-07-22T02:01:49;93141.25;;;15.74;100.00
33859;BME280;20156;47.486;12.074;2023-07-22T02:04:14;93180.16;;;15.48;100.00
33859;BME280;20156;47.486;12.074;2023-07-22T02:06:39;93182.63;;;15.58;100.00
33859;BME280;20156;47.486;12.074;2023-07-22T02:09:05;93179.31;;;15.71;100.00
33859;BME280;20156;47.486;12.074;2023-07-22T02:11:36;93195.59;;;15.68;100.00
33859;BME280;20156;47.486;12.074;2023-07-22T02:14:02;93184.63;;;15.66;100.00
33859;BME280;20156;47.486;12.074;2023-07-22T02:16:29;93179.38;;;15.66;100.00
33859;BME280;20156;47.486;12.074;2023-07-22T02:18:54;93191.13;;;15.50;100.00
33859;BME280;20156;47.486;12.074;2023-07-22T02:21:20;93181.13;;;15.52;100.00
33859;BME280;20156;47.486;12.074;2023-07-22T02:23:45;93165.50;;;15.66;100.00
33859;BME280;20156;47.486;12.074;2023-07-22T02:26:10;93166.78;;;15.68;100.00
33859;BME280;20156;47.486;12.074;2023-07-22T02:28:36;93192.00;;;15.64;100.00
33859;BME280;20156;47.486;12.074;2023-07-22T02:31:02;93199.00;;;15.69;100.00
33859;BME280;20156;47.486;12.074;2023-07-22T02:33:32;93204.09;;;15.79;100.00
33859;BME280;20156;47.486;12.074;2023-07-22T02:35:57;93229.47;;;15.64;100.00
33859;BME280;20156;47.486;12.074;2023-07-22T02:38:23;93206.44;;;15.80;100.00
33859;BME280;20156;47.486;12.074;2023-07-22T02:40:48;93213.78;;;15.78;100.00
33859;BME280;20156;47.486;12.074;2023-07-22T02:43:14;93218.91;;;15.70;100.00
33859;BME280;20156;47.486;12.074;2023-07-22T02:45:40;93197.03;;;15.79;100.00
33859;BME280;20156;47.486;12.074;2023-07-22T02:48:06;93202.69;;;15.86;100.00
33859;BME280;20156;47.486;12.074;2023-07-22T02:50:31;93218.56;;;15.76;100.00
33859;BME280;20156;47.486;12.074;2023-07-22T02:52:57;93219.81;;;15.79;100.00
33859;BME280;20156;47.486;12.074;2023-07-22T02:55:22;93221.47;;;15.75;100.00
33859;BME280;20156;47.486;12.074;2023-07-22T02:57:48;93218.78;;;15.80;100.00
33859;BME280;20156;47.486;12.074;2023-07-22T03:00:16;93228.50;;;15.79;100.00
33859;BME280;20156;47.486;12.074;2023-07-22T03:02:55;93262.44;;;15.71;100.00
33859;BME280;20156;47.486;12.074;2023-07-22T03:05:27;93270.44;;;15.79;100.00
33859;BME280;20156;47.486;12.074;2023-07-22T03:07:53;93307.00;;;15.71;100.00
33859;BME280;20156;47.486;12.074;2023-07-22T03:10:19;93338.94;;;15.73;100.00
33859;BME280;20156;47.486;12.074;2023-07-22T03:12:44;93337.97;;;15.87;100.00
33859;BME280;20156;47.486;12.074;2023-07-22T03:15:11;93344.84;;;15.83;100.00
33859;BME280;20156;47.486;12.074;2023-07-22T03:17:39;93337.31;;;15.77;100.00
33859;BME280;20156;47.486;12.074;2023-07-22T03:20:07;93339.59;;;15.64;100.00
33859;BME280;20156;47.486;12.074;2023-07-22T03:22:36;93337.03;;;15.78;100.00
33859;BME280;20156;47.486;12.074;2023-07-22T03:25:01;93334.28;;;15.88;100.00
33859;BME280;20156;47.486;12.074;2023-07-22T03:27:27;93318.97;;;15.95;100.00
33859;BME280;20156;47.486;12.074;2023-07-22T03:29:53;93295.66;;;15.94;100.00
33859;BME280;20156;47.486;12.074;2023-07-22T03:32:18;93298.66;;;15.87;100.00
33859;BME280;20156;47.486;12.074;2023-07-22T03:34:44;93287.38;;;15.87;100.00
33859;BME280;20156;47.486;12.074;2023-07-22T03:37:09;93294.47;;;15.86;100.00
33859;BME280;20156;47.486;12.074;2023-07-22T03:39:35;93300.00;;;15.85;100.00
33859;BME280;20156;47.486;12.074;2023-07-22T03:42:00;93292.13;;;15.85;100.00
33859;BME280;20156;47.486;12.074;2023-07-22T03:44:25;93271.06;;;15.90;100.00
33859;BME280;20156;47.486;12.074;2023-07-22T03:46:53;93267.66;;;15.89;100.00
33859;BME280;20156;47.486;12.074;2023-07-22T03:49:19;93255.81;;;15.92;100.00
33859;BME280;20156;47.486;12.074;2023-07-22T03:51:44;93234.78;;;15.97;100.00
33859;BME280;20156;47.486;12.074;2023-07-22T03:54:09;93240.56;;;15.94;100.00
33859;BME280;20156;47.486;12.074;2023-07-22T03:56:35;93234.78;;;15.97;100.00
33859;BME280;20156;47.486;12.074;2023-07-22T03:59:00;93247.97;;;15.92;100.00
33859;BME280;20156;47.486;12.074;2023-07-22T04:01:26;93275.25;;;15.91;100.00
33859;BME280;20156;47.486;12.074;2023-07-22T04:03:51;93301.97;;;15.93;100.00
33859;BME280;20156;47.486;12.074;2023-07-22T04:06:16;93296.44;;;15.94;100.00
33859;BME280;20156;47.486;12.074;2023-07-22T04:08:42;93288.03;;;15.98;100.00
33859;BME280;20156;47.486;12.074;2023-07-22T04:11:07;93280.06;;;16.03;100.00
33859;BME280;20156;47.486;12.074;2023-07-22T04:13:33;93273.97;;;16.07;100.00
33859;BME280;20156;47.486;12.074;2023-07-22T04:15:58;93281.06;;;16.07;100.00
33859;BME280;20156;47.486;12.074;2023-07-22T04:18:23;93291.19;;;15.94;100.00
33859;BME280;20156;47.486;12.074;2023-07-22T04:20:55;93264.44;;;16.11;100.00
33859;BME280;20156;47.486;12.074;2023-07-22T04:23:22;93251.13;;;16.08;100.00
33859;BME280;20156;47.486;12.074;2023-07-22T04:25:47;93253.84;;;16.03;100.00
33859;BME280;20156;47.486;12.074;2023-07-22T04:28:13;93244.13;;;16.03;100.00
33859;BME280;20156;47.486;12.074;2023-07-22T04:30:38;93237.44;;;16.11;100.00
33859;BME280;20156;47.486;12.074;2023-07-22T04:33:05;93243.91;;;16.18;100.00
33859;BME280;20156;47.486;12.074;2023-07-22T04:35:36;93227.00;;;16.24;100.00
33859;BME280;20156;47.486;12.074;2023-07-22T04:38:02;93248.84;;;16.20;100.00
33859;BME280;20156;47.486;12.074;2023-07-22T04:40:28;93265.66;;;16.19;100.00
33859;BME280;20156;47.486;12.074;2023-07-22T04:42:55;93280.19;;;16.30;100.00
33859;BME280;20156;47.486;12.074;2023-07-22T04:45:22;93295.66;;;16.32;100.00
33859;BME280;20156;47.486;12.074;2023-07-22T04:47:49;93278.47;;;16.39;100.00
33859;BME280;20156;47.486;12.074;2023-07-22T04:50:16;93290.31;;;16.37;100.00
33859;BME280;20156;47.486;12.074;2023-07-22T04:52:43;93309.75;;;16.36;100.00
33859;BME280;20156;47.486;12.074;2023-07-22T04:55:09;93339.59;;;16.40;100.00
33859;BME280;20156;47.486;12.074;2023-07-22T04:57:35;93365.00;;;16.44;100.00
33859;BME280;20156;47.486;12.074;2023-07-22T05:00:02;93422.25;;;16.42;100.00
33859;BME280;20156;47.486;12.074;2023-07-22T05:02:31;93459.44;;;16.49;100.00
33859;BME280;20156;47.486;12.074;2023-07-22T05:04:57;93431.00;;;16.75;100.00
33859;BME280;20156;47.486;12.074;2023-07-22T05:07:22;93402.28;;;16.98;100.00
33859;BME280;20156;47.486;12.074;2023-07-22T05:09:48;93407.84;;;17.10;100.00
33859;BME280;20156;47.486;12.074;2023-07-22T05:12:14;93420.44;;;17.27;100.00
33859;BME280;20156;47.486;12.074;2023-07-22T05:14:39;93446.44;;;17.28;100.00
33859;BME280;20156;47.486;12.074;2023-07-22T05:17:05;93454.84;;;17.30;100.00
33859;BME280;20156;47.486;12.074;2023-07-22T05:19:31;93449.59;;;17.44;100.00
33859;BME280;20156;47.486;12.074;2023-07-22T05:21:56;93471.59;;;17.34;100.00
33859;BME280;20156;47.486;12.074;2023-07-22T05:24:21;93464.00;;;17.47;100.00
33859;BME280;20156;47.486;12.074;2023-07-22T05:26:47;93480.31;;;17.49;100.00
33859;BME280;20156;47.486;12.074;2023-07-22T05:29:12;93497.41;;;17.32;100.00
33859;BME280;20156;47.486;12.074;2023-07-22T05:31:38;93507.47;;;17.25;100.00
33859;BME280;20156;47.486;12.074;2023-07-22T05:34:04;93480.66;;;17.42;100.00
33859;BME280;20156;47.486;12.074;2023-07-22T05:36:29;93489.91;;;17.39;100.00
33859;BME280;20156;47.486;12.074;2023-07-22T05:38:55;93491.31;;;17.51;100.00
33859;BME280;20156;47.486;12.074;2023-07-22T05:41:20;93533.50;;;17.59;100.00
33859;BME280;20156;47.486;12.074;2023-07-22T05:43:46;93560.31;;;17.42;100.00
33859;BME280;20156;47.486;12.074;2023-07-22T05:46:11;93579.94;;;17.50;100.00
33859;BME280;20156;47.486;12.074;2023-07-22T05:48:37;93606.25;;;17.50;100.00
33859;BME280;20156;47.486;12.074;2023-07-22T05:51:03;93597.19;;;17.56;100.00
33859;BME280;20156;47.486;12.074;2023-07-22T05:53:28;93577.69;;;17.76;100.00
33859;BME280;20156;47.486;12.074;2023-07-22T05:55:54;93605.16;;;17.70;100.00
33859;BME280;20156;47.486;12.074;2023-07-22T05:58:19;93599.81;;;17.75;100.00
33859;BME280;20156;47.486;12.074;2023-07-22T06:00:45;93593.38;;;18.00;100.00
33859;BME280;20156;47.486;12.074;2023-07-22T06:03:11;93611.06;;;17.94;100.00
33859;BME280;20156;47.486;12.074;2023-07-22T06:05:37;93594.88;;;18.20;100.00
33859;BME280;20156;47.486;12.074;2023-07-22T06:08:03;93601.22;;;18.46;100.00
33859;BME280;20156;47.486;12.074;2023-07-22T06:10:28;93693.88;;;18.34;100.00
33859;BME280;20156;47.486;12.074;2023-07-22T06:12:54;93698.19;;;18.44;100.00
33859;BME280;20156;47.486;12.074;2023-07-22T06:15:20;93688.66;;;18.62;100.00
33859;BME280;20156;47.486;12.074;2023-07-22T06:17:45;93706.84;;;18.45;100.00
33859;BME280;20156;47.486;12.074;2023-07-22T06:20:11;93743.00;;;18.25;100.00
33859;BME280;20156;47.486;12.074;2023-07-22T06:22:36;93776.81;;;18.18;100.00
33859;BME280;20156;47.486;12.074;2023-07-22T06:25:02;93794.59;;;18.08;100.00
33859;BME280;20156;47.486;12.074;2023-07-22T06:27:28;93806.84;;;18.17;100.00
33859;BME280;20156;47.486;12.074;2023-07-22T06:29:53;93804.53;;;18.29;100.00
33859;BME280;20156;47.486;12.074;2023-07-22T06:32:18;93872.28;;;18.61;100.00
33859;BME280;20156;47.486;12.074;2023-07-22T06:34:44;93908.63;;;18.83;100.00
33859;BME280;20156;47.486;12.074;2023-07-22T06:37:09;93900.69;;;19.02;100.00
33859;BME280;20156;47.486;12.074;2023-07-22T06:39:35;93916.00;;;19.00;100.00
33859;BME280;20156;47.486;12.074;2023-07-22T06:42:00;93908.13;;;19.14;100.00
33859;BME280;20156;47.486;12.074;2023-07-22T06:44:25;93884.34;;;19.46;100.00
33859;BME280;20156;47.486;12.074;2023-07-22T06:46:51;93841.47;;;20.09;100.00
33859;BME280;20156;47.486;12.074;2023-07-22T06:49:16;93912.84;;;20.46;100.00
33859;BME280;20156;47.486;12.074;2023-07-22T06:51:42;93952.88;;;20.53;100.00
33859;BME280;20156;47.486;12.074;2023-07-22T06:54:07;94018.81;;;20.03;100.00
33859;BME280;20156;47.486;12.074;2023-07-22T06:56:33;94009.69;;;20.09;100.00
33859;BME280;20156;47.486;12.074;2023-07-22T06:58:58;94019.25;;;19.91;100.00
33859;BME280;20156;47.486;12.074;2023-07-22T07:01:23;94014.38;;;19.85;100.00
33859;BME280;20156;47.486;12.074;2023-07-22T07:03:49;94007.81;;;19.96;100.00
33859;BME280;20156;47.486;12.074;2023-07-22T07:06:14;94019.63;;;19.71;100.00
33859;BME280;20156;47.486;12.074;2023-07-22T07:08:40;93942.69;;;19.91;100.00
33859;BME280;20156;47.486;12.074;2023-07-22T07:11:05;94030.13;;;19.90;100.00
33859;BME280;20156;47.486;12.074;2023-07-22T07:13:31;94015.84;;;19.58;100.00
33859;BME280;20156;47.486;12.074;2023-07-22T07:15:56;93947.25;;;19.58;100.00
33859;BME280;20156;47.486;12.074;2023-07-22T07:18:41;93971.78;;;19.59;100.00
33859;BME280;20156;47.486;12.074;2023-07-22T07:21:07;93931.25;;;19.68;100.00
33859;BME280;20156;47.486;12.074;2023-07-22T07:23:32;93967.72;;;19.66;100.00
33859;BME280;20156;47.486;12.074;2023-07-22T07:25:58;93946.88;;;19.65;100.00
33859;BME280;20156;47.486;12.074;2023-07-22T07:28:23;93898.13;;;19.90;100.00
33859;BME280;20156;47.486;12.074;2023-07-22T07:30:49;93985.75;;;20.05;100.00
33859;BME280;20156;47.486;12.074;2023-07-22T07:33:15;93926.56;;;19.93;100.00
33859;BME280;20156;47.486;12.074;2023-07-22T07:35:45;93995.88;;;19.98;100.00
33859;BME280;20156;47.486;12.074;2023-07-22T07:38:11;94045.81;;;19.67;100.00
33859;BME280;20156;47.486;12.074;2023-07-22T07:40:36;93970.56;;;19.83;100.00
33859;BME280;20156;47.486;12.074;2023-07-22T07:43:02;93936.25;;;19.83;100.00
33859;BME280;20156;47.486;12.074;2023-07-22T07:45:27;93973.91;;;20.17;100.00
33859;BME280;20156;47.486;12.074;2023-07-22T07:47:53;94050.28;;;20.13;100.00
33859;BME280;20156;47.486;12.074;2023-07-22T07:50:18;94052.19;;;20.40;100.00
33859;BME280;20156;47.486;12.074;2023-07-22T07:52:44;94050.13;;;20.23;100.00
33859;BME280;20156;47.486;12.074;2023-07-22T07:55:09;93987.50;;;20.10;100.00
33859;BME280;20156;47.486;12.074;2023-07-22T07:57:35;93943.84;;;20.67;100.00
33859;BME280;20156;47.486;12.074;2023-07-22T08:00:01;94038.53;;;20.52;100.00
33859;BME280;20156;47.486;12.074;2023-07-22T08:02:26;94096.38;;;20.53;100.00
33859;BME280;20156;47.486;12.074;2023-07-22T08:04:51;94052.28;;;20.90;100.00
33859;BME280;20156;47.486;12.074;2023-07-22T08:07:17;94058.03;;;21.19;100.00
33859;BME280;20156;47.486;12.074;2023-07-22T08:09:43;94052.13;;;21.36;100.00
33859;BME280;20156;47.486;12.074;2023-07-22T08:12:08;94137.63;;;21.59;100.00
33859;BME280;20156;47.486;12.074;2023-07-22T08:14:34;94129.22;;;21.43;100.00
33859;BME280;20156;47.486;12.074;2023-07-22T08:16:59;94140.59;;;21.44;100.00
33859;BME280;20156;47.486;12.074;2023-07-22T08:19:24;94192.88;;;21.24;100.00
33859;BME280;20156;47.486;12.074;2023-07-22T08:21:50;94186.50;;;21.39;100.00
33859;BME280;20156;47.486;12.074;2023-07-22T08:24:15;94225.00;;;21.59;100.00
33859;BME280;20156;47.486;12.074;2023-07-22T08:26:41;94220.59;;;21.54;100.00
33859;BME280;20156;47.486;12.074;2023-07-22T08:29:06;94271.09;;;21.44;100.00
33859;BME280;20156;47.486;12.074;2023-07-22T08:31:31;94263.31;;;21.48;100.00
33859;BME280;20156;47.486;12.074;2023-07-22T08:33:57;94290.72;;;21.11;100.00
33859;BME280;20156;47.486;12.074;2023-07-22T08:36:22;94230.09;;;21.42;100.00
33859;BME280;20156;47.486;12.074;2023-07-22T08:38:48;94226.75;;;21.63;100.00
33859;BME280;20156;47.486;12.074;2023-07-22T08:41:16;94220.56;;;21.68;100.00
33859;BME280;20156;47.486;12.074;2023-07-22T08:43:45;94241.34;;;21.75;100.00
33859;BME280;20156;47.486;12.074;2023-07-22T08:46:12;94302.81;;;21.99;100.00
33859;BME280;20156;47.486;12.074;2023-07-22T08:48:41;94494.22;;;20.88;100.00
33859;BME280;20156;47.486;12.074;2023-07-22T08:51:10;94497.88;;;20.92;100.00
33859;BME280;20156;47.486;12.074;2023-07-22T08:53:38;94546.31;;;20.69;100.00
33859;BME280;20156;47.486;12.074;2023-07-22T08:56:04;94572.22;;;20.91;100.00
33859;BME280;20156;47.486;12.074;2023-07-22T08:58:29;94591.06;;;20.60;100.00
33859;BME280;20156;47.486;12.074;2023-07-22T09:00:55;94499.97;;;20.53;100.00
33859;BME280;20156;47.486;12.074;2023-07-22T09:03:21;94465.63;;;21.28;100.00
33859;BME280;20156;47.486;12.074;2023-07-22T09:05:47;94567.09;;;21.18;100.00
33859;BME280;20156;47.486;12.074;2023-07-22T09:08:13;94555.63;;;21.79;100.00
33859;BME280;20156;47.486;12.074;2023-07-22T09:10:38;94496.13;;;22.04;100.00
33859;BME280;20156;47.486;12.074;2023-07-22T09:15:32;94602.38;;;22.21;100.00
33859;BME280;20156;47.486;12.074;2023-07-22T09:17:59;94594.59;;;23.13;100.00
33859;BME280;20156;47.486;12.074;2023-07-22T09:20:25;94564.53;;;23.03;100.00
33859;BME280;20156;47.486;12.074;2023-07-22T09:22:53;94642.88;;;22.87;100.00
33859;BME280;20156;47.486;12.074;2023-07-22T09:25:24;94645.22;;;23.16;100.00
33859;BME280;20156;47.486;12.074;2023-07-22T09:27:55;94749.22;;;22.39;100.00
33859;BME280;20156;47.486;12.074;2023-07-22T09:30:29;94657.13;;;22.91;100.00
33859;BME280;20156;47.486;12.074;2023-07-22T09:32:57;94719.72;;;22.92;100.00
33859;BME280;20156;47.486;12.074;2023-07-22T09:35:30;94759.25;;;22.94;100.00
33859;BME280;20156;47.486;12.074;2023-07-22T09:37:56;94711.97;;;22.96;100.00
33859;BME280;20156;47.486;12.074;2023-07-22T09:40:23;94731.34;;;21.27;100.00
33859;BME280;20156;47.486;12.074;2023-07-22T09:42:51;94671.59;;;21.63;100.00
33859;BME280;20156;47.486;12.074;2023-07-22T09:45:24;94642.72;;;21.81;100.00
33859;BME280;20156;47.486;12.074;2023-07-22T09:47:53;94665.66;;;22.09;100.00
33859;BME280;20156;47.486;12.074;2023-07-22T09:50:22;94664.13;;;22.22;100.00
33859;BME280;20156;47.486;12.074;2023-07-22T09:55:16;94733.97;;;22.96;100.00
33859;BME280;20156;47.486;12.074;2023-07-22T09:57:45;94803.06;;;23.51;100.00
33859;BME280;20156;47.486;12.074;2023-07-22T10:00:13;94871.25;;;23.56;100.00
33859;BME280;20156;47.486;12.074;2023-07-22T10:02:43;94884.16;;;23.62;100.00
33859;BME280;20156;47.486;12.074;2023-07-22T10:05:12;94889.31;;;24.14;100.00
33859;BME280;20156;47.486;12.074;2023-07-22T10:07:44;94859.03;;;24.51;100.00
33859;BME280;20156;47.486;12.074;2023-07-22T10:10:11;94815.59;;;24.55;100.00
33859;BME280;20156;47.486;12.074;2023-07-22T10:12:40;94924.56;;;24.60;100.00
33859;BME280;20156;47.486;12.074;2023-07-22T10:15:06;94904.47;;;25.04;100.00
33859;BME280;20156;47.486;12.074;2023-07-22T10:17:33;94974.81;;;24.76;100.00
33859;BME280;20156;47.486;12.074;2023-07-22T10:19:59;94931.25;;;25.53;100.00
33859;BME280;20156;47.486;12.074;2023-07-22T10:22:24;94985.13;;;23.62;100.00
33859;BME280;20156;47.486;12.074;2023-07-22T10:24:52;94989.63;;;24.41;100.00
33859;BME280;20156;47.486;12.074;2023-07-22T10:27:20;94988.34;;;23.92;100.00
33859;BME280;20156;47.486;12.074;2023-07-22T10:29:46;95002.06;;;24.13;100.00
33859;BME280;20156;47.486;12.074;2023-07-22T10:32:12;94998.91;;;25.43;100.00
33859;BME280;20156;47.486;12.074;2023-07-22T10:34:37;95028.06;;;25.62;100.00
33859;BME280;20156;47.486;12.074;2023-07-22T10:37:03;94990.13;;;26.18;100.00
33859;BME280;20156;47.486;12.074;2023-07-22T10:39:29;95009.44;;;26.15;100.00
33859;BME280;20156;47.486;12.074;2023-07-22T10:42:02;95036.03;;;24.76;100.00
33859;BME280;20156;47.486;12.074;2023-07-22T10:44:39;95030.16;;;24.19;100.00
33859;BME280;20156;47.486;12.074;2023-07-22T10:47:08;94992.66;;;24.34;100.00
33859;BME280;20156;47.486;12.074;2023-07-22T10:49:53;94981.47;;;24.18;100.00
33859;BME280;20156;47.486;12.074;2023-07-22T10:52:44;95092.91;;;23.87;100.00
33859;BME280;20156;47.486;12.074;2023-07-22T10:55:19;95090.69;;;23.14;100.00
33859;BME280;20156;47.486;12.074;2023-07-22T10:57:52;95078.66;;;23.22;100.00
33859;BME280;20156;47.486;12.074;2023-07-22T11:00:20;95093.88;;;23.91;100.00
33859;BME280;20156;47.486;12.074;2023-07-22T11:02:47;95104.59;;;23.67;100.00
33859;BME280;20156;47.486;12.074;2023-07-22T11:05:53;95112.88;;;24.17;100.00
33859;BME280;20156;47.486;12.074;2023-07-22T11:08:39;95141.25;;;23.70;100.00
33859;BME280;20156;47.486;12.074;2023-07-22T11:11:05;95109.06;;;23.91;100.00
33859;BME280;20156;47.486;12.074;2023-07-22T11:13:37;95104.88;;;22.80;100.00
33859;BME280;20156;47.486;12.074;2023-07-22T11:16:03;95079.66;;;23.07;100.00
33859;BME280;20156;47.486;12.074;2023-07-22T11:18:41;95074.38;;;22.78;100.00
33859;BME280;20156;47.486;12.074;2023-07-22T11:21:11;95079.03;;;22.91;100.00
33859;BME280;20156;47.486;12.074;2023-07-22T11:23:37;95046.03;;;22.55;100.00
33859;BME280;20156;47.486;12.074;2023-07-22T11:26:05;95057.59;;;22.11;100.00
33859;BME280;20156;47.486;12.074;2023-07-22T11:28:31;95060.66;;;22.23;100.00
33859;BME280;20156;47.486;12.074;2023-07-22T11:30:57;95071.16;;;22.33;100.00
33859;BME280;20156;47.486;12.074;2023-07-22T11:33:24;95083.34;;;22.34;100.00
33859;BME280;20156;47.486;12.074;2023-07-22T11:35:49;95070.84;;;22.64;100.00
33859;BME280;20156;47.486;12.074;2023-07-22T11:38:15;95082.13;;;22.74;100.00
33859;BME280;20156;47.486;12.074;2023-07-22T11:40:41;95060.78;;;23.27;100.00
33859;BME280;20156;47.486;12.074;2023-07-22T11:43:06;95073.38;;;22.98;100.00
33859;BME280;20156;47.486;12.074;2023-07-22T11:45:32;95054.44;;;22.86;100.00
33859;BME280;20156;47.486;12.074;2023-07-22T11:47:58;95046.50;;;22.80;100.00
33859;BME280;20156;47.486;12.074;2023-07-22T11:50:33;95096.28;;;22.41;100.00
33859;BME280;20156;47.486;12.074;2023-07-22T11:52:58;95067.69;;;22.62;100.00
33859;BME280;20156;47.486;12.074;2023-07-22T11:55:24;95079.81;;;22.44;100.00
33859;BME280;20156;47.486;12.074;2023-07-22T11:57:53;95063.38;;;22.66;100.00
33859;BME280;20156;47.486;12.074;2023-07-22T12:00:20;95100.56;;;22.61;100.00
33859;BME280;20156;47.486;12.074;2023-07-22T12:02:46;95085.16;;;22.39;100.00
33859;BME280;20156;47.486;12.074;2023-07-22T12:05:19;95034.59;;;22.30;100.00
33859;BME280;20156;47.486;12.074;2023-07-22T12:07:45;95089.47;;;22.30;100.00
33859;BME280;20156;47.486;12.074;2023-07-22T12:10:10;95040.66;;;22.36;100.00
33859;BME280;20156;47.486;12.074;2023-07-22T12:12:47;94995.69;;;22.26;100.00
33859;BME280;20156;47.486;12.074;2023-07-22T12:15:21;94877.69;;;22.28;100.00
33859;BME280;20156;47.486;12.074;2023-07-22T12:17:53;94846.75;;;22.24;100.00
33859;BME280;20156;47.486;12.074;2023-07-22T12:20:24;94826.41;;;22.19;100.00
33859;BME280;20156;47.486;12.074;2023-07-22T12:22:50;94916.72;;;22.23;100.00
33859;BME280;20156;47.486;12.074;2023-07-22T12:25:16;94904.75;;;22.68;100.00
33859;BME280;20156;47.486;12.074;2023-07-22T12:27:41;94953.41;;;22.77;100.00
33859;BME280;20156;47.486;12.074;2023-07-22T12:30:07;95041.38;;;22.65;100.00
33859;BME280;20156;47.486;12.074;2023-07-22T12:32:33;94914.41;;;22.77;100.00
33859;BME280;20156;47.486;12.074;2023-07-22T12:34:58;94927.56;;;22.69;100.00
33859;BME280;20156;47.486;12.074;2023-07-22T12:37:24;94751.44;;;22.51;100.00
33859;BME280;20156;47.486;12.074;2023-07-22T12:39:51;94526.09;;;22.05;100.00
33859;BME280;20156;47.486;12.074;2023-07-22T12:42:16;94574.06;;;22.03;100.00